createdAt,value
2017-08-16T00:00:43.923Z,99
2017-08-16T00:01:46.728Z,99
2017-08-16T00:02:49.201Z,99
2017-08-16T00:03:51.657Z,99
2017-08-16T00:04:54.106Z,99
2017-08-16T00:05:56.556Z,99
2017-08-16T00:06:59.006Z,99
2017-08-16T00:08:01.475Z,99
2017-08-16T00:09:04.294Z,99
2017-08-16T00:10:06.757Z,99
2017-08-16T00:11:09.896Z,99
2017-08-16T00:12:12.354Z,99
2017-08-16T00:13:14.800Z,99
2017-08-16T00:14:17.267Z,99
2017-08-16T00:15:19.716Z,99
2017-08-16T00:16:22.514Z,99
2017-08-16T00:17:24.959Z,99
2017-08-16T00:18:27.413Z,99
2017-08-16T00:19:30.217Z,99
2017-08-16T00:20:33.017Z,99
2017-08-16T00:21:35.477Z,99
2017-08-16T00:22:37.934Z,99
2017-08-16T00:23:40.418Z,99
2017-08-16T00:24:42.910Z,99
2017-08-16T00:25:45.367Z,99
2017-08-16T00:26:47.830Z,99
2017-08-16T00:27:50.272Z,99
2017-08-16T00:28:52.732Z,99
2017-08-16T00:29:55.532Z,99
2017-08-16T00:30:57.978Z,99
2017-08-16T00:32:00.436Z,99
2017-08-16T00:33:03.232Z,99
2017-08-16T00:34:06.029Z,99
2017-08-16T00:35:08.841Z,99
2017-08-16T00:36:11.632Z,99
2017-08-16T00:37:14.766Z,99
2017-08-16T00:38:17.214Z,99
2017-08-16T00:39:19.685Z,99
2017-08-16T00:40:22.152Z,99
2017-08-16T00:41:24.934Z,99
2017-08-16T00:42:27.732Z,99
2017-08-16T00:43:30.185Z,99
2017-08-16T00:44:33.002Z,99
2017-08-16T00:45:35.809Z,99
2017-08-16T00:46:38.264Z,99
2017-08-16T00:47:41.051Z,99
2017-08-16T00:48:44.213Z,99
2017-08-16T00:49:46.998Z,99
2017-08-16T00:50:49.459Z,99
2017-08-16T00:51:52.253Z,99
2017-08-16T00:52:54.707Z,99
2017-08-16T00:53:57.515Z,99
2017-08-16T00:55:00.354Z,99
2017-08-16T00:56:03.447Z,99
2017-08-16T00:57:06.249Z,99
2017-08-16T00:58:09.033Z,99
2017-08-16T00:59:11.504Z,99
2017-08-16T01:00:14.295Z,99
2017-08-16T01:01:16.762Z,99
2017-08-16T01:02:19.916Z,99
2017-08-16T01:03:22.382Z,99
2017-08-16T01:04:24.831Z,99
2017-08-16T01:05:27.282Z,99
2017-08-16T01:06:29.735Z,99
2017-08-16T01:07:32.196Z,99
2017-08-16T01:08:34.659Z,99
2017-08-16T01:09:37.463Z,99
2017-08-16T01:10:39.920Z,99
2017-08-16T01:11:43.060Z,99
2017-08-16T01:12:45.526Z,99
2017-08-16T01:13:48.708Z,99
2017-08-16T01:14:51.152Z,99
2017-08-16T01:15:53.944Z,99
2017-08-16T01:16:56.398Z,99
2017-08-16T01:17:58.848Z,99
2017-08-16T01:19:01.644Z,99
2017-08-16T01:20:04.797Z,99
2017-08-16T01:21:07.247Z,99
2017-08-16T01:22:09.711Z,99
2017-08-16T01:23:12.161Z,99
2017-08-16T01:24:14.615Z,99
2017-08-16T01:25:17.405Z,99
2017-08-16T01:26:19.875Z,99
2017-08-16T01:27:22.327Z,100
2017-08-16T01:28:24.798Z,100
2017-08-16T01:29:27.593Z,100
2017-08-16T01:30:30.390Z,100
2017-08-16T01:31:32.858Z,100
2017-08-16T01:32:35.658Z,100
2017-08-16T01:33:38.118Z,100
2017-08-16T01:34:40.572Z,100
2017-08-16T01:35:43.360Z,100
2017-08-16T01:36:46.507Z,100
2017-08-16T01:37:48.964Z,100
2017-08-16T01:38:51.757Z,100
2017-08-16T01:39:54.557Z,99
2017-08-16T01:40:57.012Z,99
2017-08-16T01:41:59.466Z,99
2017-08-16T01:43:01.918Z,99
2017-08-16T01:44:05.062Z,99
2017-08-16T01:45:08.203Z,99
2017-08-16T01:46:10.994Z,99
2017-08-16T01:47:13.452Z,99
2017-08-16T01:48:16.262Z,99
2017-08-16T01:49:18.712Z,99
2017-08-16T01:50:21.163Z,99
2017-08-16T01:51:23.614Z,99
2017-08-16T01:52:26.746Z,99
2017-08-16T01:53:29.560Z,99
2017-08-16T01:54:32.364Z,99
2017-08-16T01:55:34.831Z,99
2017-08-16T01:56:37.278Z,99
2017-08-16T01:57:39.728Z,99
2017-08-16T01:58:42.533Z,99
2017-08-16T01:59:44.989Z,99
2017-08-16T02:00:47.435Z,99
2017-08-16T02:01:50.238Z,99
2017-08-16T02:02:53.385Z,99
2017-08-16T02:03:55.847Z,99
2017-08-16T02:04:58.303Z,99
2017-08-16T02:06:00.760Z,99
2017-08-16T02:07:03.556Z,99
2017-08-16T02:08:06.364Z,99
2017-08-16T02:09:09.849Z,99
2017-08-16T02:10:12.637Z,99
2017-08-16T02:11:15.092Z,99
2017-08-16T02:12:17.573Z,99
2017-08-16T02:13:20.033Z,99
2017-08-16T02:14:22.503Z,99
2017-08-16T02:15:24.951Z,99
2017-08-16T02:16:27.410Z,99
2017-08-16T02:17:29.887Z,99
2017-08-16T02:18:32.714Z,99
2017-08-16T02:19:35.505Z,99
2017-08-16T02:20:38.309Z,100
2017-08-16T02:21:41.457Z,100
2017-08-16T02:22:43.930Z,100
2017-08-16T02:23:46.396Z,100
2017-08-16T02:24:49.177Z,100
2017-08-16T02:25:51.660Z,100
2017-08-16T02:26:54.124Z,100
2017-08-16T02:27:56.577Z,100
2017-08-16T02:28:59.035Z,100
2017-08-16T02:30:02.516Z,100
2017-08-16T02:31:05.692Z,100
2017-08-16T02:32:08.516Z,100
2017-08-16T02:33:10.992Z,100
2017-08-16T02:34:14.126Z,100
2017-08-16T02:35:16.933Z,100
2017-08-16T02:36:19.735Z,100
2017-08-16T02:37:22.569Z,100
2017-08-16T02:38:25.361Z,100
2017-08-16T02:39:27.814Z,100
2017-08-16T02:40:30.278Z,100
2017-08-16T02:41:32.727Z,100
2017-08-16T02:42:36.221Z,100
2017-08-16T02:43:39.384Z,100
2017-08-16T02:44:41.844Z,100
2017-08-16T02:45:44.623Z,100
2017-08-16T02:46:47.099Z,100
2017-08-16T02:47:49.548Z,100
2017-08-16T02:48:52.375Z,100
2017-08-16T02:49:54.830Z,100
2017-08-16T02:50:57.287Z,100
2017-08-16T02:51:59.742Z,100
2017-08-16T02:53:02.556Z,100
2017-08-16T02:54:05.391Z,100
2017-08-16T02:55:07.845Z,100
2017-08-16T02:56:10.302Z,100
2017-08-16T02:57:12.772Z,100
2017-08-16T02:58:15.592Z,100
2017-08-16T02:59:18.735Z,100
2017-08-16T03:00:21.179Z,100
2017-08-16T03:01:23.640Z,100
2017-08-16T03:02:26.434Z,100
2017-08-16T03:03:28.889Z,100
2017-08-16T03:04:31.347Z,100
2017-08-16T03:05:33.797Z,100
2017-08-16T03:06:36.242Z,100
2017-08-16T03:07:38.719Z,100
2017-08-16T03:08:41.176Z,100
2017-08-16T03:09:43.625Z,100
2017-08-16T03:10:46.084Z,100
2017-08-16T03:11:48.872Z,100
2017-08-16T03:12:51.333Z,100
2017-08-16T03:13:53.778Z,100
2017-08-16T03:14:56.229Z,100
2017-08-16T03:15:58.695Z,100
2017-08-16T03:17:01.259Z,100
2017-08-16T03:18:04.395Z,100
2017-08-16T03:19:07.185Z,100
2017-08-16T03:20:09.654Z,100
2017-08-16T03:21:12.798Z,100
2017-08-16T03:22:15.254Z,100
2017-08-16T03:23:18.044Z,100
2017-08-16T03:24:21.173Z,100
2017-08-16T03:25:23.640Z,100
2017-08-16T03:26:26.104Z,100
2017-08-16T03:27:28.889Z,100
2017-08-16T03:28:31.673Z,100
2017-08-16T03:29:34.127Z,100
2017-08-16T03:30:36.598Z,100
2017-08-16T03:31:39.062Z,100
2017-08-16T03:32:41.859Z,100
2017-08-16T03:33:44.638Z,100
2017-08-16T03:34:47.804Z,100
2017-08-16T03:35:50.273Z,100
2017-08-16T03:36:53.066Z,100
2017-08-16T03:37:55.852Z,100
2017-08-16T03:38:59.002Z,100
2017-08-16T03:40:01.823Z,100
2017-08-16T03:41:04.605Z,100
2017-08-16T03:42:07.413Z,100
2017-08-16T03:43:09.865Z,100
2017-08-16T03:44:13.347Z,100
2017-08-16T03:45:15.815Z,100
2017-08-16T03:46:18.270Z,100
2017-08-16T03:47:20.725Z,100
2017-08-16T03:48:23.533Z,100
2017-08-16T03:49:25.978Z,100
2017-08-16T03:50:28.432Z,100
2017-08-16T03:51:31.219Z,100
2017-08-16T03:52:34.017Z,100
2017-08-16T03:53:36.814Z,100
2017-08-16T03:54:39.950Z,100
2017-08-16T03:55:42.403Z,100
2017-08-16T03:56:45.195Z,100
2017-08-16T03:57:47.648Z,100
2017-08-16T03:58:50.105Z,100
2017-08-16T03:59:52.550Z,100
2017-08-16T04:00:55.032Z,100
2017-08-16T04:01:57.471Z,100
2017-08-16T04:02:59.929Z,100
2017-08-16T04:04:03.398Z,100
2017-08-16T04:05:06.217Z,100
2017-08-16T04:06:09.006Z,100
2017-08-16T04:07:11.467Z,100
2017-08-16T04:08:13.907Z,100
2017-08-16T04:09:16.701Z,100
2017-08-16T04:10:19.161Z,100
2017-08-16T04:11:21.630Z,100
2017-08-16T04:12:24.083Z,100
2017-08-16T04:13:26.885Z,100
2017-08-16T04:14:29.372Z,100
2017-08-16T04:15:31.826Z,100
2017-08-16T04:16:34.292Z,100
2017-08-16T04:17:37.084Z,100
2017-08-16T04:18:39.540Z,100
2017-08-16T04:19:42.368Z,100
2017-08-16T04:20:45.165Z,100
2017-08-16T04:21:48.284Z,100
2017-08-16T04:22:50.737Z,100
2017-08-16T04:23:53.177Z,100
2017-08-16T04:24:55.634Z,100
2017-08-16T04:25:58.088Z,100
2017-08-16T04:27:00.890Z,100
2017-08-16T04:28:03.341Z,100
2017-08-16T04:29:05.805Z,100
2017-08-16T04:30:08.252Z,100
2017-08-16T04:31:11.064Z,100
2017-08-16T04:32:13.513Z,100
2017-08-16T04:33:15.968Z,100
2017-08-16T04:34:19.100Z,100
2017-08-16T04:35:21.563Z,100
2017-08-16T04:36:24.025Z,100
2017-08-16T04:37:26.852Z,100
2017-08-16T04:38:29.659Z,100
2017-08-16T04:39:32.133Z,100
2017-08-16T04:40:34.914Z,100
2017-08-16T04:41:37.716Z,100
2017-08-16T04:42:40.177Z,100
2017-08-16T04:43:42.968Z,100
2017-08-16T04:44:45.772Z,100
2017-08-16T04:45:48.236Z,100
2017-08-16T04:46:50.685Z,100
2017-08-16T04:47:53.494Z,100
2017-08-16T04:48:56.312Z,100
2017-08-16T04:49:58.758Z,100
2017-08-16T04:51:01.901Z,100
2017-08-16T04:52:04.697Z,100
2017-08-16T04:53:07.189Z,100
2017-08-16T04:54:10.004Z,100
2017-08-16T04:55:13.472Z,100
2017-08-16T04:56:15.931Z,100
2017-08-16T04:57:19.080Z,100
2017-08-16T04:58:21.900Z,100
2017-08-16T04:59:24.340Z,100
2017-08-16T05:00:26.816Z,100
2017-08-16T05:01:29.295Z,100
2017-08-16T05:02:31.735Z,100
2017-08-16T05:03:34.196Z,100
2017-08-16T05:04:36.648Z,100
2017-08-16T05:05:39.126Z,100
2017-08-16T05:06:41.601Z,100
2017-08-16T05:07:44.044Z,100
2017-08-16T05:08:46.847Z,100
2017-08-16T05:09:49.644Z,100
2017-08-16T05:10:52.457Z,100
2017-08-16T05:11:55.249Z,100
2017-08-16T05:12:58.047Z,100
2017-08-16T05:14:00.498Z,100
2017-08-16T05:15:04.336Z,100
2017-08-16T05:16:06.803Z,100
2017-08-16T05:17:09.256Z,100
2017-08-16T05:18:11.705Z,100
2017-08-16T05:19:14.164Z,100
2017-08-16T05:20:16.612Z,100
2017-08-16T05:21:19.770Z,100
2017-08-16T05:22:22.550Z,100
2017-08-16T05:23:25.396Z,100
2017-08-16T05:24:28.531Z,100
2017-08-16T05:25:30.974Z,99
2017-08-16T05:26:33.589Z,99
2017-08-16T05:27:36.055Z,99
2017-08-16T05:28:38.856Z,99
2017-08-16T05:29:41.318Z,99
2017-08-16T05:30:43.766Z,99
2017-08-16T05:31:46.217Z,99
2017-08-16T05:32:48.684Z,100
2017-08-16T05:33:51.139Z,100
2017-08-16T05:34:53.595Z,100
2017-08-16T05:35:56.390Z,100
2017-08-16T05:36:58.843Z,100
2017-08-16T05:38:01.635Z,100
2017-08-16T05:39:04.434Z,100
2017-08-16T05:40:07.593Z,100
2017-08-16T05:41:10.409Z,100
2017-08-16T05:42:12.867Z,100
2017-08-16T05:43:15.323Z,99
2017-08-16T05:44:17.771Z,99
2017-08-16T05:45:20.253Z,99
2017-08-16T05:46:22.704Z,99
2017-08-16T05:47:25.142Z,99
2017-08-16T05:48:27.605Z,99
2017-08-16T05:49:30.064Z,99
2017-08-16T05:50:32.521Z,99
2017-08-16T05:51:34.974Z,99
2017-08-16T05:52:37.769Z,99
2017-08-16T05:53:40.233Z,99
2017-08-16T05:54:43.033Z,99
2017-08-16T05:55:45.819Z,99
2017-08-16T05:56:48.931Z,99
2017-08-16T05:57:51.403Z,99
2017-08-16T05:58:53.868Z,99
2017-08-16T05:59:56.667Z,99
2017-08-16T06:00:59.465Z,99
2017-08-16T06:02:02.603Z,99
2017-08-16T06:03:05.746Z,99
2017-08-16T06:04:08.898Z,98
2017-08-16T06:05:11.350Z,99
2017-08-16T06:06:13.814Z,99
2017-08-16T06:07:16.965Z,99
2017-08-16T06:08:19.795Z,99
2017-08-16T06:09:22.250Z,99
2017-08-16T06:10:25.038Z,99
2017-08-16T06:11:27.508Z,99
2017-08-16T06:12:30.307Z,99
2017-08-16T06:13:33.095Z,99
2017-08-16T06:14:35.893Z,99
2017-08-16T06:15:38.394Z,99
2017-08-16T06:16:40.845Z,99
2017-08-16T06:17:43.648Z,99
2017-08-16T06:18:46.774Z,99
2017-08-16T06:19:49.254Z,99
2017-08-16T06:20:52.407Z,99
2017-08-16T06:21:55.190Z,99
2017-08-16T06:22:57.651Z,99
2017-08-16T06:24:00.110Z,99
2017-08-16T06:25:02.969Z,98
2017-08-16T06:26:05.438Z,98
2017-08-16T06:27:07.900Z,98
2017-08-16T06:28:10.343Z,98
2017-08-16T06:29:12.821Z,98
2017-08-16T06:30:15.286Z,98
2017-08-16T06:31:18.089Z,98
2017-08-16T06:32:20.604Z,98
2017-08-16T06:33:23.395Z,98
2017-08-16T06:34:26.185Z,98
2017-08-16T06:35:28.652Z,98
2017-08-16T06:36:31.462Z,98
2017-08-16T06:37:33.909Z,98
2017-08-16T06:38:36.386Z,98
2017-08-16T06:39:39.190Z,98
2017-08-16T06:40:41.994Z,98
2017-08-16T06:41:44.795Z,98
2017-08-16T06:42:47.267Z,98
2017-08-16T06:43:49.709Z,98
2017-08-16T06:44:52.521Z,98
2017-08-16T06:45:55.307Z,98
2017-08-16T06:46:58.445Z,98
2017-08-16T06:48:01.268Z,98
2017-08-16T06:49:05.083Z,98
2017-08-16T06:50:08.558Z,97
2017-08-16T06:51:11.016Z,97
2017-08-16T06:52:13.477Z,97
2017-08-16T06:53:15.929Z,97
2017-08-16T06:54:18.396Z,97
2017-08-16T06:55:20.858Z,98
2017-08-16T06:56:23.297Z,98
2017-08-16T06:57:25.755Z,98
2017-08-16T06:58:28.604Z,98
2017-08-16T06:59:31.061Z,98
2017-08-16T07:00:33.530Z,98
2017-08-16T07:01:36.331Z,98
2017-08-16T07:02:39.123Z,98
2017-08-16T07:03:41.592Z,98
2017-08-16T07:04:44.387Z,97
2017-08-16T07:05:47.521Z,98
2017-08-16T07:06:50.328Z,97
2017-08-16T07:07:52.795Z,97
2017-08-16T07:08:55.605Z,97
2017-08-16T07:09:58.056Z,97
2017-08-16T07:11:00.853Z,97
2017-08-16T07:12:04.323Z,97
2017-08-16T07:13:06.788Z,97
2017-08-16T07:14:09.909Z,97
2017-08-16T07:15:12.724Z,97
2017-08-16T07:16:15.173Z,97
2017-08-16T07:17:17.650Z,97
2017-08-16T07:18:21.167Z,97
2017-08-16T07:19:24.649Z,97
2017-08-16T07:20:27.119Z,97
2017-08-16T07:21:29.927Z,97
2017-08-16T07:22:32.717Z,97
2017-08-16T07:23:35.176Z,97
2017-08-16T07:24:37.974Z,97
2017-08-16T07:25:40.843Z,97
2017-08-16T07:26:43.627Z,97
2017-08-16T07:27:46.101Z,97
2017-08-16T07:28:48.562Z,97
2017-08-16T07:29:51.039Z,97
2017-08-16T07:30:53.503Z,97
2017-08-16T07:31:55.958Z,97
2017-08-16T07:32:58.419Z,97
2017-08-16T07:34:00.886Z,97
2017-08-16T07:35:04.351Z,97
2017-08-16T07:36:06.812Z,97
2017-08-16T07:37:09.281Z,96
2017-08-16T07:38:11.741Z,96
2017-08-16T07:39:14.538Z,96
2017-08-16T07:40:16.990Z,96
2017-08-16T07:41:19.456Z,96
2017-08-16T07:42:22.271Z,96
2017-08-16T07:43:24.743Z,95
2017-08-16T07:44:27.532Z,95
2017-08-16T07:45:30.668Z,96
2017-08-16T07:46:33.140Z,95
2017-08-16T07:47:35.603Z,94
2017-08-16T07:48:38.045Z,94
2017-08-16T07:49:40.868Z,94
2017-08-16T07:50:43.657Z,95
2017-08-16T07:51:46.129Z,95
2017-08-16T07:52:49.274Z,95
2017-08-16T07:53:51.724Z,94
2017-08-16T07:54:54.184Z,94
2017-08-16T07:55:56.992Z,94
2017-08-16T07:57:00.126Z,93
2017-08-16T07:58:02.932Z,93
2017-08-16T07:59:05.410Z,93
2017-08-16T08:00:07.881Z,93
2017-08-16T08:01:10.696Z,93
2017-08-16T08:02:13.152Z,92
2017-08-16T08:03:15.604Z,92
2017-08-16T08:04:18.397Z,92
2017-08-16T08:05:20.862Z,92
2017-08-16T08:06:23.326Z,92
2017-08-16T08:07:25.780Z,90
2017-08-16T08:08:28.243Z,90
2017-08-16T08:09:31.400Z,90
2017-08-16T08:10:33.846Z,89
2017-08-16T08:11:36.314Z,89
2017-08-16T08:12:38.788Z,89
2017-08-16T08:13:41.262Z,88
2017-08-16T08:14:44.743Z,88
2017-08-16T08:15:47.212Z,89
2017-08-16T08:16:49.673Z,88
2017-08-16T08:17:52.157Z,89
2017-08-16T08:18:54.623Z,90
2017-08-16T08:19:57.085Z,88
2017-08-16T08:20:59.562Z,87
2017-08-16T08:22:02.364Z,86
2017-08-16T08:23:05.515Z,88
2017-08-16T08:24:07.983Z,88
2017-08-16T08:25:10.435Z,88
2017-08-16T08:26:12.900Z,88
2017-08-16T08:27:15.375Z,87
2017-08-16T08:28:18.174Z,87
2017-08-16T08:29:20.634Z,88
2017-08-16T08:30:24.135Z,86
2017-08-16T08:31:26.593Z,85
2017-08-16T08:32:29.079Z,87
2017-08-16T08:33:31.544Z,87
2017-08-16T08:34:33.989Z,88
2017-08-16T08:35:36.787Z,87
2017-08-16T08:36:39.956Z,88
2017-08-16T08:37:42.420Z,87
2017-08-16T08:38:44.902Z,87
2017-08-16T08:39:47.696Z,86
2017-08-16T08:40:50.159Z,86
2017-08-16T08:41:52.619Z,84
2017-08-16T08:42:55.425Z,84
2017-08-16T08:43:57.889Z,85
2017-08-16T08:45:00.360Z,84
2017-08-16T08:46:03.507Z,83
2017-08-16T08:47:06.306Z,81
2017-08-16T08:48:09.112Z,82
2017-08-16T08:49:11.929Z,81
2017-08-16T08:50:14.390Z,81
2017-08-16T08:51:16.864Z,82
2017-08-16T08:52:19.325Z,81
2017-08-16T08:53:21.789Z,79
2017-08-16T08:54:24.597Z,81
2017-08-16T08:55:27.402Z,80
2017-08-16T08:56:29.859Z,82
2017-08-16T08:57:32.678Z,79
2017-08-16T08:58:35.121Z,79
2017-08-16T08:59:37.609Z,79
2017-08-16T09:00:40.079Z,81
2017-08-16T09:01:42.905Z,80
2017-08-16T09:02:45.380Z,77
2017-08-16T09:03:47.868Z,80
2017-08-16T09:04:50.334Z,80
2017-08-16T09:05:52.795Z,79
2017-08-16T09:06:55.260Z,81
2017-08-16T09:07:58.048Z,82
2017-08-16T09:09:00.524Z,82
2017-08-16T09:10:03.008Z,79
2017-08-16T09:11:06.157Z,78
2017-08-16T09:12:08.961Z,80
2017-08-16T09:13:11.440Z,80
2017-08-16T09:14:13.910Z,80
2017-08-16T09:15:16.388Z,77
2017-08-16T09:16:18.858Z,80
2017-08-16T09:17:21.666Z,77
2017-08-16T09:18:24.164Z,78
2017-08-16T09:19:26.979Z,79
2017-08-16T09:20:29.794Z,77
2017-08-16T09:21:32.281Z,80
2017-08-16T09:22:34.727Z,77
2017-08-16T09:23:37.530Z,79
2017-08-16T09:24:40.014Z,76
2017-08-16T09:25:42.811Z,75
2017-08-16T09:26:45.628Z,77
2017-08-16T09:27:48.454Z,79
2017-08-16T09:28:51.255Z,76
2017-08-16T09:29:53.738Z,77
2017-08-16T09:30:56.566Z,77
2017-08-16T09:31:59.017Z,76
2017-08-16T09:33:01.498Z,78
2017-08-16T09:34:04.388Z,77
2017-08-16T09:35:07.567Z,79
2017-08-16T09:36:10.025Z,81
2017-08-16T09:37:12.489Z,80
2017-08-16T09:38:14.950Z,76
2017-08-16T09:39:18.108Z,80
2017-08-16T09:40:20.575Z,78
2017-08-16T09:41:23.049Z,80
2017-08-16T09:42:25.841Z,78
2017-08-16T09:43:28.329Z,80
2017-08-16T09:44:30.799Z,82
2017-08-16T09:45:33.602Z,78
2017-08-16T09:46:36.068Z,77
2017-08-16T09:47:38.529Z,78
2017-08-16T09:48:41.331Z,78
2017-08-16T09:49:44.499Z,80
2017-08-16T09:50:47.308Z,78
2017-08-16T09:51:50.118Z,79
2017-08-16T09:52:52.586Z,79
2017-08-16T09:53:55.393Z,78
2017-08-16T09:54:57.849Z,77
2017-08-16T09:56:00.314Z,77
2017-08-16T09:57:03.102Z,78
2017-08-16T09:58:05.586Z,78
2017-08-16T09:59:08.048Z,79
2017-08-16T10:00:10.849Z,79
2017-08-16T10:01:13.317Z,80
2017-08-16T10:02:15.785Z,78
2017-08-16T10:03:18.599Z,76
2017-08-16T10:04:21.418Z,77
2017-08-16T10:05:23.884Z,79
2017-08-16T10:06:26.354Z,80
2017-08-16T10:07:28.827Z,78
2017-08-16T10:08:31.288Z,77
2017-08-16T10:09:34.457Z,76
2017-08-16T10:10:36.933Z,75
2017-08-16T10:11:39.401Z,77
2017-08-16T10:12:42.208Z,75
2017-08-16T10:13:45.001Z,79
2017-08-16T10:14:48.153Z,77
2017-08-16T10:15:50.628Z,78
2017-08-16T10:16:53.072Z,76
2017-08-16T10:17:56.218Z,78
2017-08-16T10:18:59.018Z,80
2017-08-16T10:20:01.824Z,78
2017-08-16T10:21:04.975Z,80
2017-08-16T10:22:07.484Z,80
2017-08-16T10:23:09.942Z,80
2017-08-16T10:24:12.436Z,79
2017-08-16T10:25:14.898Z,78
2017-08-16T10:26:17.391Z,74
2017-08-16T10:27:20.189Z,77
2017-08-16T10:28:23.334Z,76
2017-08-16T10:29:25.799Z,75
2017-08-16T10:30:28.622Z,75
2017-08-16T10:31:31.748Z,78
2017-08-16T10:32:34.209Z,78
2017-08-16T10:33:37.020Z,79
2017-08-16T10:34:39.825Z,77
2017-08-16T10:35:42.299Z,76
2017-08-16T10:36:45.104Z,74
2017-08-16T10:37:48.573Z,74
2017-08-16T10:38:51.031Z,73
2017-08-16T10:39:53.495Z,78
2017-08-16T10:40:55.967Z,76
2017-08-16T10:41:58.419Z,78
2017-08-16T10:43:00.887Z,80
2017-08-16T10:44:03.356Z,78
2017-08-16T10:45:05.824Z,77
2017-08-16T10:46:08.282Z,77
2017-08-16T10:47:10.747Z,79
2017-08-16T10:48:13.195Z,78
2017-08-16T10:49:15.669Z,80
2017-08-16T10:50:18.140Z,81
2017-08-16T10:51:20.596Z,82
2017-08-16T10:52:23.047Z,78
2017-08-16T10:53:25.509Z,80
2017-08-16T10:54:28.306Z,79
2017-08-16T10:55:30.789Z,80
2017-08-16T10:56:33.244Z,82
2017-08-16T10:57:35.705Z,81
2017-08-16T10:58:38.168Z,79
2017-08-16T10:59:40.972Z,80
2017-08-16T11:00:43.450Z,79
2017-08-16T11:01:45.922Z,80
2017-08-16T11:02:48.723Z,78
2017-08-16T11:03:51.522Z,78
2017-08-16T11:04:54.327Z,79
2017-08-16T11:05:56.782Z,80
2017-08-16T11:06:59.619Z,80
2017-08-16T11:08:02.784Z,80
2017-08-16T11:09:05.256Z,79
2017-08-16T11:10:08.059Z,80
2017-08-16T11:11:10.560Z,78
2017-08-16T11:12:13.019Z,77
2017-08-16T11:13:15.499Z,76
2017-08-16T11:14:17.955Z,74
2017-08-16T11:15:20.419Z,75
2017-08-16T11:16:22.882Z,77
2017-08-16T11:17:25.358Z,76
2017-08-16T11:18:27.826Z,76
2017-08-16T11:19:30.626Z,77
2017-08-16T11:20:33.429Z,74
2017-08-16T11:21:36.233Z,72
2017-08-16T11:22:39.031Z,71
2017-08-16T11:23:41.536Z,73
2017-08-16T11:24:44.337Z,72
2017-08-16T11:25:46.818Z,75
2017-08-16T11:26:49.612Z,76
2017-08-16T11:27:52.083Z,75
2017-08-16T11:28:54.556Z,74
2017-08-16T11:29:57.032Z,73
2017-08-16T11:30:59.822Z,73
2017-08-16T11:32:02.960Z,71
2017-08-16T11:33:05.771Z,69
2017-08-16T11:34:08.236Z,68
2017-08-16T11:35:10.700Z,70
2017-08-16T11:36:13.542Z,70
2017-08-16T11:37:16.003Z,69
2017-08-16T11:38:18.473Z,68
2017-08-16T11:39:20.942Z,68
2017-08-16T11:40:23.415Z,66
2017-08-16T11:41:26.222Z,67
2017-08-16T11:42:29.017Z,68
2017-08-16T11:43:31.812Z,66
2017-08-16T11:44:34.274Z,66
2017-08-16T11:45:37.442Z,63
2017-08-16T11:46:39.905Z,64
2017-08-16T11:47:42.371Z,62
2017-08-16T11:48:45.530Z,63
2017-08-16T11:49:49.005Z,63
2017-08-16T11:50:51.813Z,65
2017-08-16T11:51:54.636Z,68
2017-08-16T11:52:57.464Z,64
2017-08-16T11:54:00.315Z,65
2017-08-16T11:55:03.140Z,65
2017-08-16T11:56:05.613Z,65
2017-08-16T11:57:08.073Z,66
2017-08-16T11:58:10.883Z,66
2017-08-16T11:59:13.340Z,67
2017-08-16T12:00:16.163Z,68
2017-08-16T12:01:18.973Z,69
2017-08-16T12:02:22.117Z,72
2017-08-16T12:03:24.586Z,71
2017-08-16T12:04:27.424Z,68
2017-08-16T12:05:29.906Z,68
2017-08-16T12:06:32.373Z,64
2017-08-16T12:07:34.831Z,64
2017-08-16T12:08:37.294Z,68
2017-08-16T12:09:39.805Z,68
2017-08-16T12:10:42.624Z,64
2017-08-16T12:11:45.075Z,65
2017-08-16T12:12:47.903Z,68
2017-08-16T12:13:51.396Z,69
2017-08-16T12:14:53.874Z,68
2017-08-16T12:15:56.354Z,67
2017-08-16T12:16:59.185Z,68
2017-08-16T12:18:02.334Z,65
2017-08-16T12:19:04.813Z,64
2017-08-16T12:20:07.300Z,68
2017-08-16T12:21:09.747Z,67
2017-08-16T12:22:12.221Z,67
2017-08-16T12:23:15.049Z,65
2017-08-16T12:24:17.865Z,68
2017-08-16T12:25:20.671Z,67
2017-08-16T12:26:23.137Z,64
2017-08-16T12:27:25.601Z,65
2017-08-16T12:28:28.081Z,60
2017-08-16T12:29:30.561Z,61
2017-08-16T12:30:33.388Z,60
2017-08-16T12:31:35.875Z,64
2017-08-16T12:32:38.345Z,66
2017-08-16T12:33:40.867Z,62
2017-08-16T12:34:43.683Z,61
2017-08-16T12:35:46.509Z,63
2017-08-16T12:36:49.304Z,67
2017-08-16T12:37:51.805Z,61
2017-08-16T12:38:54.274Z,61
2017-08-16T12:39:57.099Z,62
2017-08-16T12:41:00.244Z,62
2017-08-16T12:42:03.392Z,63
2017-08-16T12:43:05.853Z,64
2017-08-16T12:44:08.332Z,65
2017-08-16T12:45:10.794Z,67
2017-08-16T12:46:13.258Z,68
2017-08-16T12:47:16.068Z,69
2017-08-16T12:48:18.884Z,68
2017-08-16T12:49:21.366Z,67
2017-08-16T12:50:23.835Z,68
2017-08-16T12:51:26.306Z,67
2017-08-16T12:52:28.778Z,68
2017-08-16T12:53:31.281Z,69
2017-08-16T12:54:34.111Z,69
2017-08-16T12:55:36.618Z,69
2017-08-16T12:56:39.436Z,68
2017-08-16T12:57:42.591Z,69
2017-08-16T12:58:45.056Z,69
2017-08-16T12:59:47.529Z,69
2017-08-16T13:00:50.347Z,67
2017-08-16T13:01:52.799Z,67
2017-08-16T13:02:56.319Z,66
2017-08-16T13:03:58.793Z,66
2017-08-16T13:05:02.300Z,66
2017-08-16T13:06:05.120Z,69
2017-08-16T13:07:07.945Z,64
2017-08-16T13:08:10.758Z,65
2017-08-16T13:09:13.253Z,67
2017-08-16T13:10:15.716Z,66
2017-08-16T13:11:18.567Z,64
2017-08-16T13:12:21.029Z,68
2017-08-16T13:13:23.502Z,66
2017-08-16T13:14:26.315Z,66
2017-08-16T13:15:29.483Z,68
2017-08-16T13:16:31.946Z,68
2017-08-16T13:17:34.427Z,71
2017-08-16T13:18:37.240Z,71
2017-08-16T13:19:39.711Z,71
2017-08-16T13:20:42.538Z,71
2017-08-16T13:21:45.346Z,69
2017-08-16T13:22:47.823Z,70
2017-08-16T13:23:50.636Z,68
2017-08-16T13:24:53.450Z,68
2017-08-16T13:25:55.917Z,62
2017-08-16T13:26:58.393Z,65
2017-08-16T13:28:01.517Z,65
2017-08-16T13:29:03.995Z,60
2017-08-16T13:30:06.528Z,60
2017-08-16T13:31:09.353Z,61
2017-08-16T13:32:12.168Z,62
2017-08-16T13:33:14.684Z,61
2017-08-16T13:34:17.494Z,60
2017-08-16T13:35:20.651Z,62
2017-08-16T13:36:23.484Z,59
2017-08-16T13:37:26.291Z,62
2017-08-16T13:38:28.768Z,59
2017-08-16T13:39:31.251Z,59
2017-08-16T13:40:34.068Z,61
2017-08-16T13:41:36.557Z,58
2017-08-16T13:42:39.026Z,59
2017-08-16T13:43:41.505Z,61
2017-08-16T13:44:44.308Z,59
2017-08-16T13:45:46.787Z,59
2017-08-16T13:46:49.615Z,56
2017-08-16T13:47:52.098Z,59
2017-08-16T13:48:54.569Z,60
2017-08-16T13:49:57.372Z,57
2017-08-16T13:50:59.842Z,59
2017-08-16T13:52:02.683Z,58
2017-08-16T13:53:06.201Z,60
2017-08-16T13:54:09.005Z,58
2017-08-16T13:55:12.177Z,61
2017-08-16T13:56:14.658Z,62
2017-08-16T13:57:17.476Z,62
2017-08-16T13:58:19.946Z,62
2017-08-16T13:59:22.745Z,61
2017-08-16T14:00:25.566Z,62
2017-08-16T14:01:28.405Z,62
2017-08-16T14:02:30.875Z,63
2017-08-16T14:03:33.705Z,64
2017-08-16T14:04:36.175Z,62
2017-08-16T14:05:38.654Z,61
2017-08-16T14:06:41.116Z,62
2017-08-16T14:07:43.579Z,62
2017-08-16T14:08:46.074Z,62
2017-08-16T14:09:48.891Z,62
2017-08-16T14:10:52.059Z,62
2017-08-16T14:11:54.537Z,62
2017-08-16T14:12:57.007Z,62
2017-08-16T14:13:59.821Z,62
2017-08-16T14:15:02.647Z,63
2017-08-16T14:16:05.555Z,64
2017-08-16T14:17:08.070Z,65
2017-08-16T14:18:10.863Z,65
2017-08-16T14:19:13.672Z,65
2017-08-16T14:20:16.154Z,63
2017-08-16T14:21:19.302Z,63
2017-08-16T14:22:21.781Z,63
2017-08-16T14:23:24.944Z,65
2017-08-16T14:24:27.747Z,67
2017-08-16T14:25:30.596Z,65
2017-08-16T14:26:33.405Z,64
2017-08-16T14:27:36.876Z,64
2017-08-16T14:28:39.685Z,64
2017-08-16T14:29:42.502Z,64
2017-08-16T14:30:44.984Z,65
2017-08-16T14:31:47.771Z,68
2017-08-16T14:32:50.615Z,69
2017-08-16T14:33:53.086Z,66
2017-08-16T14:34:55.553Z,66
2017-08-16T14:35:58.369Z,67
2017-08-16T14:37:01.527Z,68
2017-08-16T14:38:04.674Z,67
2017-08-16T14:39:07.830Z,64
2017-08-16T14:40:10.306Z,63
2017-08-16T14:41:12.795Z,61
2017-08-16T14:42:15.337Z,61
2017-08-16T14:43:17.803Z,58
2017-08-16T14:44:20.279Z,61
2017-08-16T14:45:22.756Z,60
2017-08-16T14:46:25.249Z,59